Terminal Aerodrome Forecast
Issued by NWS Amarillo, TX

Home | Current Version | Previous Version | Text Only | Print | Product List | Glossary On
Versions: 1 2 3 4 5 6 7 8 9 10 11 12 13 14
000
FTUS44 KAMA 241720
TAFGUY
TAF
KGUY 241720Z 2418/2518 34014G22KT P6SM SCT100
     FM250100 03009KT P6SM BKN100
     FM250700 VRB06KT P6SM SKC=

USA.gov is the U.S. government's official web portal to all federal, state and local government web resources and services.